sensor_id;sensor_type;location;lat;lon;timestamp;pressure;altitude;pressure_sealevel;temperature;humidity
18784;BME280;9520;50.954;6.968;2022-10-31T00:00:19;101484.53;;;22.30;47.35
18784;BME280;9520;50.954;6.968;2022-10-31T00:00:41;101482.72;;;22.31;46.99
18784;BME280;9520;50.954;6.968;2022-10-31T00:01:09;101476.63;;;22.27;47.06
18784;BME280;9520;50.954;6.968;2022-10-31T00:01:35;101475.81;;;22.25;47.10
18784;BME280;9520;50.954;6.968;2022-10-31T00:01:56;101486.50;;;22.27;47.44
18784;BME280;9520;50.954;6.968;2022-10-31T00:02:18;101483.59;;;22.31;47.29
18784;BME280;9520;50.954;6.968;2022-10-31T00:02:40;101480.03;;;22.31;47.44
18784;BME280;9520;50.954;6.968;2022-10-31T00:03:02;101482.81;;;22.29;47.54
18784;BME280;9520;50.954;6.968;2022-10-31T00:03:24;101483.88;;;22.25;47.12
18784;BME280;9520;50.954;6.968;2022-10-31T00:03:47;101472.44;;;22.22;47.05
18784;BME280;9520;50.954;6.968;2022-10-31T00:04:09;101481.94;;;22.29;47.16
18784;BME280;9520;50.954;6.968;2022-10-31T00:04:31;101483.81;;;22.27;47.35
18784;BME280;9520;50.954;6.968;2022-10-31T00:04:53;101485.81;;;22.23;47.17
18784;BME280;9520;50.954;6.968;2022-10-31T00:05:15;101483.19;;;22.22;47.55
18784;BME280;9520;50.954;6.968;2022-10-31T00:05:41;101484.06;;;22.22;47.43
18784;BME280;9520;50.954;6.968;2022-10-31T00:06:03;101489.44;;;22.22;47.37
18784;BME280;9520;50.954;6.968;2022-10-31T00:06:25;101484.06;;;22.22;47.38
18784;BME280;9520;50.954;6.968;2022-10-31T00:06:48;101476.22;;;22.18;47.33
18784;BME280;9520;50.954;6.968;2022-10-31T00:07:10;101477.81;;;22.22;47.40
18784;BME280;9520;50.954;6.968;2022-10-31T00:07:31;101481.44;;;22.21;47.25
18784;BME280;9520;50.954;6.968;2022-10-31T00:07:53;101480.56;;;22.20;47.34
18784;BME280;9520;50.954;6.968;2022-10-31T00:08:16;101477.09;;;22.18;47.68
18784;BME280;9520;50.954;6.968;2022-10-31T00:08:38;101459.00;;;22.05;47.64
18784;BME280;9520;50.954;6.968;2022-10-31T00:09:01;101484.47;;;22.15;47.82
18784;BME280;9520;50.954;6.968;2022-10-31T00:09:24;101477.47;;;22.11;48.05
18784;BME280;9520;50.954;6.968;2022-10-31T00:09:46;101481.66;;;22.16;47.92
18784;BME280;9520;50.954;6.968;2022-10-31T00:10:08;101476.28;;;22.16;47.64
18784;BME280;9520;50.954;6.968;2022-10-31T00:10:30;101484.34;;;22.16;47.55
18784;BME280;9520;50.954;6.968;2022-10-31T00:10:52;101484.34;;;22.16;47.70
18784;BME280;9520;50.954;6.968;2022-10-31T00:11:13;101480.03;;;22.14;47.56
18784;BME280;9520;50.954;6.968;2022-10-31T00:11:36;101485.53;;;22.11;47.73
18784;BME280;9520;50.954;6.968;2022-10-31T00:11:57;101480.16;;;22.11;47.77
18784;BME280;9520;50.954;6.968;2022-10-31T00:12:19;101491.88;;;22.10;48.09
18784;BME280;9520;50.954;6.968;2022-10-31T00:12:40;101485.69;;;22.08;47.82
18784;BME280;9520;50.954;6.968;2022-10-31T00:13:03;101492.13;;;22.05;48.13
18784;BME280;9520;50.954;6.968;2022-10-31T00:13:25;101492.13;;;22.05;47.94
18784;BME280;9520;50.954;6.968;2022-10-31T00:13:46;101491.94;;;22.08;47.81
18784;BME280;9520;50.954;6.968;2022-10-31T00:14:08;101490.06;;;22.10;48.04
18784;BME280;9520;50.954;6.968;2022-10-31T00:14:31;101491.00;;;22.09;48.12
18784;BME280;9520;50.954;6.968;2022-10-31T00:14:52;101490.38;;;22.04;48.18
18784;BME280;9520;50.954;6.968;2022-10-31T00:15:14;101497.31;;;22.08;47.92
18784;BME280;9520;50.954;6.968;2022-10-31T00:15:36;101486.88;;;22.02;47.94
18784;BME280;9520;50.954;6.968;2022-10-31T00:15:58;101491.06;;;22.08;48.21
18784;BME280;9520;50.954;6.968;2022-10-31T00:16:22;101492.81;;;22.09;48.12
18784;BME280;9520;50.954;6.968;2022-10-31T00:16:45;101501.75;;;22.09;47.89
18784;BME280;9520;50.954;6.968;2022-10-31T00:17:06;101492.97;;;22.06;48.04
18784;BME280;9520;50.954;6.968;2022-10-31T00:17:29;101500.06;;;22.07;47.92
18784;BME280;9520;50.954;6.968;2022-10-31T00:17:50;101492.25;;;22.02;47.95
18784;BME280;9520;50.954;6.968;2022-10-31T00:18:12;101499.19;;;22.06;48.06
18784;BME280;9520;50.954;6.968;2022-10-31T00:18:33;101491.94;;;22.08;47.99
18784;BME280;9520;50.954;6.968;2022-10-31T00:18:56;101501.81;;;22.08;47.61
18784;BME280;9520;50.954;6.968;2022-10-31T00:19:19;101495.50;;;22.09;47.69
18784;BME280;9520;50.954;6.968;2022-10-31T00:19:41;101492.13;;;22.05;47.36
18784;BME280;9520;50.954;6.968;2022-10-31T00:20:03;101489.03;;;22.13;47.68
18784;BME280;9520;50.954;6.968;2022-10-31T00:20:25;101498.91;;;22.12;47.78
18784;BME280;9520;50.954;6.968;2022-10-31T00:20:48;101490.19;;;22.07;47.62
18784;BME280;9520;50.954;6.968;2022-10-31T00:21:10;101493.69;;;22.09;47.55
18784;BME280;9520;50.954;6.968;2022-10-31T00:21:32;101486.56;;;22.08;47.49
18784;BME280;9520;50.954;6.968;2022-10-31T00:21:54;101493.59;;;22.11;47.63
18784;BME280;9520;50.954;6.968;2022-10-31T00:22:16;101484.69;;;22.10;47.81
18784;BME280;9520;50.954;6.968;2022-10-31T00:22:38;101496.38;;;22.09;47.69
18784;BME280;9520;50.954;6.968;2022-10-31T00:23:00;101488.38;;;22.08;48.18
18784;BME280;9520;50.954;6.968;2022-10-31T00:23:22;101490.25;;;22.06;48.28
18784;BME280;9520;50.954;6.968;2022-10-31T00:23:43;101499.06;;;22.09;48.25
18784;BME280;9520;50.954;6.968;2022-10-31T00:24:06;101496.38;;;22.09;47.96
18784;BME280;9520;50.954;6.968;2022-10-31T00:24:28;101493.75;;;22.08;47.80
18784;BME280;9520;50.954;6.968;2022-10-31T00:24:50;101487.28;;;22.12;47.67
18784;BME280;9520;50.954;6.968;2022-10-31T00:25:12;101498.03;;;22.12;47.43
18784;BME280;9520;50.954;6.968;2022-10-31T00:25:36;101496.22;;;22.12;47.43
18784;BME280;9520;50.954;6.968;2022-10-31T00:26:00;101492.00;;;22.07;47.72
18784;BME280;9520;50.954;6.968;2022-10-31T00:26:22;101492.81;;;22.09;47.46
18784;BME280;9520;50.954;6.968;2022-10-31T00:26:43;101489.25;;;22.08;47.96
18784;BME280;9520;50.954;6.968;2022-10-31T00:27:06;101487.50;;;22.07;47.82
18784;BME280;9520;50.954;6.968;2022-10-31T00:27:27;101489.25;;;22.08;48.10
18784;BME280;9520;50.954;6.968;2022-10-31T00:27:49;101490.13;;;22.09;47.90
18784;BME280;9520;50.954;6.968;2022-10-31T00:28:11;101491.94;;;22.08;47.92
18784;BME280;9520;50.954;6.968;2022-10-31T00:28:33;101488.63;;;22.03;47.91
18784;BME280;9520;50.954;6.968;2022-10-31T00:28:56;101490.19;;;22.07;47.83
18784;BME280;9520;50.954;6.968;2022-10-31T00:29:18;101488.44;;;22.06;47.91
18784;BME280;9520;50.954;6.968;2022-10-31T00:29:39;101487.91;;;22.00;47.99
18784;BME280;9520;50.954;6.968;2022-10-31T00:30:01;101479.41;;;21.90;48.03
18784;BME280;9520;50.954;6.968;2022-10-31T00:30:24;101496.19;;;21.95;48.08
18784;BME280;9520;50.954;6.968;2022-10-31T00:30:46;101492.53;;;21.96;48.07
18784;BME280;9520;50.954;6.968;2022-10-31T00:31:09;101490.72;;;21.96;48.20
18784;BME280;9520;50.954;6.968;2022-10-31T00:31:31;101481.22;;;21.89;48.10
18784;BME280;9520;50.954;6.968;2022-10-31T00:31:54;101493.50;;;21.95;48.02
18784;BME280;9520;50.954;6.968;2022-10-31T00:32:16;101490.03;;;21.91;48.62
18784;BME280;9520;50.954;6.968;2022-10-31T00:32:37;101480.34;;;21.89;48.61
18784;BME280;9520;50.954;6.968;2022-10-31T00:33:00;101485.66;;;21.90;48.36
18784;BME280;9520;50.954;6.968;2022-10-31T00:33:22;101481.22;;;21.89;48.33
18784;BME280;9520;50.954;6.968;2022-10-31T00:33:45;101482.00;;;21.91;48.37
18784;BME280;9520;50.954;6.968;2022-10-31T00:34:07;101480.34;;;21.89;48.66
18784;BME280;9520;50.954;6.968;2022-10-31T00:34:30;101486.59;;;21.89;48.60
18784;BME280;9520;50.954;6.968;2022-10-31T00:34:54;101472.28;;;21.89;48.61
18784;BME280;9520;50.954;6.968;2022-10-31T00:35:17;101466.97;;;21.87;48.51
18784;BME280;9520;50.954;6.968;2022-10-31T00:35:39;101480.19;;;21.92;48.67
18784;BME280;9520;50.954;6.968;2022-10-31T00:36:02;101469.44;;;21.92;48.25
18784;BME280;9520;50.954;6.968;2022-10-31T00:36:24;101471.16;;;21.94;48.17
18784;BME280;9520;50.954;6.968;2022-10-31T00:36:46;101462.91;;;21.98;48.04
18784;BME280;9520;50.954;6.968;2022-10-31T00:37:08;101471.03;;;21.96;48.22
18784;BME280;9520;50.954;6.968;2022-10-31T00:37:30;101468.28;;;21.98;48.46
18784;BME280;9520;50.954;6.968;2022-10-31T00:37:52;101472.66;;;22.00;48.14
18784;BME280;9520;50.954;6.968;2022-10-31T00:38:14;101471.78;;;22.00;48.33
18784;BME280;9520;50.954;6.968;2022-10-31T00:38:37;101477.06;;;22.01;48.30
18784;BME280;9520;50.954;6.968;2022-10-31T00:38:59;101476.28;;;21.99;48.27
18784;BME280;9520;50.954;6.968;2022-10-31T00:39:20;101476.28;;;21.99;48.11
18784;BME280;9520;50.954;6.968;2022-10-31T00:39:42;101481.66;;;21.99;48.27
18784;BME280;9520;50.954;6.968;2022-10-31T00:40:07;101483.72;;;21.94;48.08
18784;BME280;9520;50.954;6.968;2022-10-31T00:40:29;101488.13;;;21.95;47.89
18784;BME280;9520;50.954;6.968;2022-10-31T00:40:51;101492.41;;;21.99;47.88
18784;BME280;9520;50.954;6.968;2022-10-31T00:41:14;101492.41;;;21.99;47.94
18784;BME280;9520;50.954;6.968;2022-10-31T00:41:37;101501.34;;;22.00;47.71
18784;BME280;9520;50.954;6.968;2022-10-31T00:42:04;101504.09;;;21.98;47.66
18784;BME280;9520;50.954;6.968;2022-10-31T00:42:25;101498.00;;;21.94;48.07
18784;BME280;9520;50.954;6.968;2022-10-31T00:42:47;101498.03;;;21.93;47.84
18784;BME280;9520;50.954;6.968;2022-10-31T00:43:10;101499.16;;;21.89;48.24
18784;BME280;9520;50.954;6.968;2022-10-31T00:43:36;101505.53;;;21.86;48.16
18784;BME280;9520;50.954;6.968;2022-10-31T00:43:58;101506.56;;;21.84;48.08
18784;BME280;9520;50.954;6.968;2022-10-31T00:44:20;101504.88;;;21.81;48.47
18784;BME280;9520;50.954;6.968;2022-10-31T00:44:42;101505.75;;;21.82;47.84
18784;BME280;9520;50.954;6.968;2022-10-31T00:45:04;101502.13;;;21.83;47.68
18784;BME280;9520;50.954;6.968;2022-10-31T00:45:26;101508.44;;;21.82;47.88
18784;BME280;9520;50.954;6.968;2022-10-31T00:45:48;101502.13;;;21.83;47.97
18784;BME280;9520;50.954;6.968;2022-10-31T00:46:11;101515.63;;;21.81;47.81
18784;BME280;9520;50.954;6.968;2022-10-31T00:46:33;101510.19;;;21.83;47.99
18784;BME280;9520;50.954;6.968;2022-10-31T00:46:54;101506.50;;;21.85;48.01
18784;BME280;9520;50.954;6.968;2022-10-31T00:47:16;101516.19;;;21.88;47.80
18784;BME280;9520;50.954;6.968;2022-10-31T00:47:39;101503.72;;;21.87;47.47
18784;BME280;9520;50.954;6.968;2022-10-31T00:48:02;101512.81;;;21.84;47.42
18784;BME280;9520;50.954;6.968;2022-10-31T00:48:24;101512.56;;;21.89;47.68
18784;BME280;9520;50.954;6.968;2022-10-31T00:48:47;101514.31;;;21.90;47.55
18784;BME280;9520;50.954;6.968;2022-10-31T00:49:08;101523.16;;;21.92;47.57
18784;BME280;9520;50.954;6.968;2022-10-31T00:49:31;101507.91;;;21.92;47.61
18784;BME280;9520;50.954;6.968;2022-10-31T00:49:52;101514.16;;;21.93;47.89
18784;BME280;9520;50.954;6.968;2022-10-31T00:50:14;101509.81;;;21.90;47.64
18784;BME280;9520;50.954;6.968;2022-10-31T00:50:36;101509.97;;;21.87;47.76
18784;BME280;9520;50.954;6.968;2022-10-31T00:50:59;101512.88;;;21.83;47.83
18784;BME280;9520;50.954;6.968;2022-10-31T00:51:22;101509.69;;;21.75;48.09
18784;BME280;9520;50.954;6.968;2022-10-31T00:51:44;101518.41;;;21.80;48.15
18784;BME280;9520;50.954;6.968;2022-10-31T00:52:05;101517.44;;;21.81;47.74
18784;BME280;9520;50.954;6.968;2022-10-31T00:52:28;101519.19;;;21.82;48.12
18784;BME280;9520;50.954;6.968;2022-10-31T00:52:50;101522.81;;;21.81;47.84
18784;BME280;9520;50.954;6.968;2022-10-31T00:53:12;101519.28;;;21.80;48.31
18784;BME280;9520;50.954;6.968;2022-10-31T00:53:34;101516.44;;;21.83;48.23
18784;BME280;9520;50.954;6.968;2022-10-31T00:53:56;101519.06;;;21.85;47.77
18784;BME280;9520;50.954;6.968;2022-10-31T00:54:19;101517.22;;;21.85;47.90
18784;BME280;9520;50.954;6.968;2022-10-31T00:54:41;101518.94;;;21.86;48.10
18784;BME280;9520;50.954;6.968;2022-10-31T00:55:03;101516.19;;;21.88;48.22
18784;BME280;9520;50.954;6.968;2022-10-31T00:55:25;101510.84;;;21.88;47.90
18784;BME280;9520;50.954;6.968;2022-10-31T00:55:47;101522.28;;;21.91;48.10
18784;BME280;9520;50.954;6.968;2022-10-31T00:56:10;101517.00;;;21.90;47.84
18784;BME280;9520;50.954;6.968;2022-10-31T00:56:31;101514.31;;;21.90;47.80
18784;BME280;9520;50.954;6.968;2022-10-31T00:56:54;101514.38;;;21.88;47.90
18784;BME280;9520;50.954;6.968;2022-10-31T00:57:15;101511.63;;;21.90;48.01
18784;BME280;9520;50.954;6.968;2022-10-31T00:57:38;101511.63;;;21.90;47.64
18784;BME280;9520;50.954;6.968;2022-10-31T00:58:00;101512.50;;;21.90;47.87
18784;BME280;9520;50.954;6.968;2022-10-31T00:58:22;101515.19;;;21.90;47.62
18784;BME280;9520;50.954;6.968;2022-10-31T00:58:44;101515.97;;;21.92;47.59
18784;BME280;9520;50.954;6.968;2022-10-31T00:59:06;101515.94;;;21.94;47.82
18784;BME280;9520;50.954;6.968;2022-10-31T00:59:29;101515.00;;;21.95;47.42
18784;BME280;9520;50.954;6.968;2022-10-31T00:59:50;101514.13;;;21.94;47.91
18784;BME280;9520;50.954;6.968;2022-10-31T01:00:13;101517.88;;;21.90;47.83
18784;BME280;9520;50.954;6.968;2022-10-31T01:00:35;101513.28;;;21.92;47.61
18784;BME280;9520;50.954;6.968;2022-10-31T01:00:58;101515.19;;;21.90;47.77
18784;BME280;9520;50.954;6.968;2022-10-31T01:01:19;101517.78;;;21.92;47.83
18784;BME280;9520;50.954;6.968;2022-10-31T01:01:43;101514.16;;;21.93;47.49
18784;BME280;9520;50.954;6.968;2022-10-31T01:02:05;101513.25;;;21.94;47.66
18784;BME280;9520;50.954;6.968;2022-10-31T01:02:28;101507.00;;;21.93;47.77
18784;BME280;9520;50.954;6.968;2022-10-31T01:02:50;101515.09;;;21.92;47.50
18784;BME280;9520;50.954;6.968;2022-10-31T01:03:12;101516.91;;;21.91;47.52
18784;BME280;9520;50.954;6.968;2022-10-31T01:03:35;101511.06;;;21.83;47.53
18784;BME280;9520;50.954;6.968;2022-10-31T01:04:03;101520.63;;;21.89;47.80
18784;BME280;9520;50.954;6.968;2022-10-31T01:04:26;101508.22;;;21.86;47.68
18784;BME280;9520;50.954;6.968;2022-10-31T01:04:50;101511.72;;;21.88;47.58
18784;BME280;9520;50.954;6.968;2022-10-31T01:05:12;101501.31;;;21.81;47.69
18784;BME280;9520;50.954;6.968;2022-10-31T01:05:35;101520.00;;;21.84;47.57
18784;BME280;9520;50.954;6.968;2022-10-31T01:05:58;101522.59;;;21.85;47.54
18784;BME280;9520;50.954;6.968;2022-10-31T01:06:22;101513.91;;;21.80;47.63
18784;BME280;9520;50.954;6.968;2022-10-31T01:06:44;101511.22;;;21.80;47.79
18784;BME280;9520;50.954;6.968;2022-10-31T01:07:06;101516.38;;;21.85;47.39
18784;BME280;9520;50.954;6.968;2022-10-31T01:07:28;101511.75;;;21.87;47.68
18784;BME280;9520;50.954;6.968;2022-10-31T01:07:50;101511.75;;;21.87;47.44
18784;BME280;9520;50.954;6.968;2022-10-31T01:08:11;101510.84;;;21.88;47.71
18784;BME280;9520;50.954;6.968;2022-10-31T01:08:37;101516.91;;;21.91;47.72
18784;BME280;9520;50.954;6.968;2022-10-31T01:08:59;101516.91;;;21.91;47.49
18784;BME280;9520;50.954;6.968;2022-10-31T01:09:21;101503.56;;;21.90;47.65
18784;BME280;9520;50.954;6.968;2022-10-31T01:09:44;101502.59;;;21.91;47.19
18784;BME280;9520;50.954;6.968;2022-10-31T01:10:06;101500.72;;;21.93;47.28
18784;BME280;9520;50.954;6.968;2022-10-31T01:10:28;101497.03;;;21.95;47.60
18784;BME280;9520;50.954;6.968;2022-10-31T01:10:59;101504.31;;;21.93;47.47
18784;BME280;9520;50.954;6.968;2022-10-31T01:11:22;101498.88;;;21.95;47.96
18784;BME280;9520;50.954;6.968;2022-10-31T01:11:45;101497.16;;;21.92;47.78
18784;BME280;9520;50.954;6.968;2022-10-31T01:12:07;101488.91;;;21.97;48.15
18784;BME280;9520;50.954;6.968;2022-10-31T01:12:28;101486.22;;;21.97;47.81
18784;BME280;9520;50.954;6.968;2022-10-31T01:12:51;101492.41;;;21.99;47.61
18784;BME280;9520;50.954;6.968;2022-10-31T01:13:16;101491.47;;;22.00;48.02
18784;BME280;9520;50.954;6.968;2022-10-31T01:13:39;101492.47;;;21.98;47.97
18784;BME280;9520;50.954;6.968;2022-10-31T01:14:01;101492.63;;;21.94;47.92
18784;BME280;9520;50.954;6.968;2022-10-31T01:14:25;101502.41;;;21.95;47.73
18784;BME280;9520;50.954;6.968;2022-10-31T01:14:47;101499.81;;;21.94;47.85
18784;BME280;9520;50.954;6.968;2022-10-31T01:15:15;101490.03;;;21.91;47.83
18784;BME280;9520;50.954;6.968;2022-10-31T01:15:37;101491.78;;;21.92;47.60
18784;BME280;9520;50.954;6.968;2022-10-31T01:16:04;101491.78;;;21.92;48.06
18784;BME280;9520;50.954;6.968;2022-10-31T01:16:27;101487.31;;;21.93;47.98
18784;BME280;9520;50.954;6.968;2022-10-31T01:16:51;101493.50;;;21.95;47.80
18784;BME280;9520;50.954;6.968;2022-10-31T01:17:16;101488.97;;;21.95;47.89
18784;BME280;9520;50.954;6.968;2022-10-31T01:17:43;101492.47;;;21.98;47.84
18784;BME280;9520;50.954;6.968;2022-10-31T01:18:05;101489.78;;;21.98;47.69
18784;BME280;9520;50.954;6.968;2022-10-31T01:18:28;101488.97;;;21.95;47.88
18784;BME280;9520;50.954;6.968;2022-10-31T01:18:55;101486.38;;;21.94;47.98
18784;BME280;9520;50.954;6.968;2022-10-31T01:19:22;101489.84;;;21.96;47.75
18784;BME280;9520;50.954;6.968;2022-10-31T01:19:51;101484.56;;;21.94;47.85
18784;BME280;9520;50.954;6.968;2022-10-31T01:20:21;101491.53;;;21.99;47.73
18784;BME280;9520;50.954;6.968;2022-10-31T01:20:57;101459.94;;;21.85;47.81
18784;BME280;9520;50.954;6.968;2022-10-31T01:21:22;101487.97;;;21.98;47.54
18784;BME280;9520;50.954;6.968;2022-10-31T01:21:45;101479.03;;;21.98;47.45
18784;BME280;9520;50.954;6.968;2022-10-31T01:22:06;101483.41;;;22.00;47.81
18784;BME280;9520;50.954;6.968;2022-10-31T01:22:28;101487.03;;;21.99;47.42
18784;BME280;9520;50.954;6.968;2022-10-31T01:22:52;101484.56;;;21.94;47.84
18784;BME280;9520;50.954;6.968;2022-10-31T01:23:15;101475.53;;;21.95;47.57
18784;BME280;9520;50.954;6.968;2022-10-31T01:23:37;101481.03;;;21.94;47.54
18784;BME280;9520;50.954;6.968;2022-10-31T01:23:59;101482.84;;;21.93;47.71
18784;BME280;9520;50.954;6.968;2022-10-31T01:24:23;101480.19;;;21.92;47.57
18784;BME280;9520;50.954;6.968;2022-10-31T01:24:45;101484.59;;;21.93;47.45
18784;BME280;9520;50.954;6.968;2022-10-31T01:25:08;101489.16;;;21.91;47.64
18784;BME280;9520;50.954;6.968;2022-10-31T01:25:31;101481.06;;;21.92;47.80
18784;BME280;9520;50.954;6.968;2022-10-31T01:26:04;101482.78;;;21.95;47.75
18784;BME280;9520;50.954;6.968;2022-10-31T01:26:28;101472.34;;;21.87;47.50
18784;BME280;9520;50.954;6.968;2022-10-31T01:26:51;101485.44;;;21.95;47.73
18784;BME280;9520;50.954;6.968;2022-10-31T01:27:13;101479.22;;;21.94;47.72
18784;BME280;9520;50.954;6.968;2022-10-31T01:27:35;101480.91;;;21.95;47.68
18784;BME280;9520;50.954;6.968;2022-10-31T01:27:56;101480.06;;;21.95;47.46
18784;BME280;9520;50.954;6.968;2022-10-31T01:28:19;101482.78;;;21.95;47.68
18784;BME280;9520;50.954;6.968;2022-10-31T01:28:47;101472.03;;;21.95;47.57
18784;BME280;9520;50.954;6.968;2022-10-31T01:29:53;101481.78;;;21.96;47.89
18784;BME280;9520;50.954;6.968;2022-10-31T01:30:16;101481.94;;;21.93;48.11
18784;BME280;9520;50.954;6.968;2022-10-31T01:30:37;101479.31;;;21.91;48.06
18784;BME280;9520;50.954;6.968;2022-10-31T01:31:03;101484.59;;;21.93;48.26
18784;BME280;9520;50.954;6.968;2022-10-31T01:31:27;101475.84;;;21.89;48.24
18784;BME280;9520;50.954;6.968;2022-10-31T01:31:50;101483.81;;;21.91;48.20
18784;BME280;9520;50.954;6.968;2022-10-31T01:32:11;101479.41;;;21.90;47.94
18784;BME280;9520;50.954;6.968;2022-10-31T01:32:33;101472.22;;;21.90;48.04
18784;BME280;9520;50.954;6.968;2022-10-31T01:32:55;101482.00;;;21.91;48.02
18784;BME280;9520;50.954;6.968;2022-10-31T01:33:20;101477.59;;;21.90;48.15
18784;BME280;9520;50.954;6.968;2022-10-31T01:33:41;101481.06;;;21.92;48.32
18784;BME280;9520;50.954;6.968;2022-10-31T01:34:03;101476.94;;;21.85;48.50
18784;BME280;9520;50.954;6.968;2022-10-31T01:34:25;101473.22;;;21.88;48.15
18784;BME280;9520;50.954;6.968;2022-10-31T01:34:48;101474.91;;;21.90;48.37
18784;BME280;9520;50.954;6.968;2022-10-31T01:35:10;101476.56;;;21.93;47.97
18784;BME280;9520;50.954;6.968;2022-10-31T01:35:32;101475.69;;;21.92;48.17
18784;BME280;9520;50.954;6.968;2022-10-31T01:35:53;101475.75;;;21.91;48.19
18784;BME280;9520;50.954;6.968;2022-10-31T01:36:17;101480.19;;;21.92;48.08
18784;BME280;9520;50.954;6.968;2022-10-31T01:36:42;101472.09;;;21.93;48.05
18784;BME280;9520;50.954;6.968;2022-10-31T01:37:04;101473.00;;;21.92;48.01
18784;BME280;9520;50.954;6.968;2022-10-31T01:37:26;101475.53;;;21.95;48.00
18784;BME280;9520;50.954;6.968;2022-10-31T01:37:47;101469.44;;;21.92;48.30
18784;BME280;9520;50.954;6.968;2022-10-31T01:38:10;101473.84;;;21.94;48.35
18784;BME280;9520;50.954;6.968;2022-10-31T01:38:32;101470.28;;;21.94;47.85
18784;BME280;9520;50.954;6.968;2022-10-31T01:38:56;101468.50;;;21.93;47.97
18784;BME280;9520;50.954;6.968;2022-10-31T01:39:18;101465.97;;;21.90;47.93
18784;BME280;9520;50.954;6.968;2022-10-31T01:39:40;101465.81;;;21.93;48.00
18784;BME280;9520;50.954;6.968;2022-10-31T01:40:04;101479.25;;;21.93;47.52
18784;BME280;9520;50.954;6.968;2022-10-31T01:40:29;101473.88;;;21.93;47.84
18784;BME280;9520;50.954;6.968;2022-10-31T01:40:50;101460.66;;;21.88;47.45
18784;BME280;9520;50.954;6.968;2022-10-31T01:41:13;101474.78;;;21.93;47.62
18784;BME280;9520;50.954;6.968;2022-10-31T01:41:39;101476.41;;;21.96;47.58
18784;BME280;9520;50.954;6.968;2022-10-31T01:42:02;101477.28;;;21.96;47.58
18784;BME280;9520;50.954;6.968;2022-10-31T01:42:24;101468.34;;;21.96;47.54
18784;BME280;9520;50.954;6.968;2022-10-31T01:42:48;101472.97;;;21.94;47.40
18784;BME280;9520;50.954;6.968;2022-10-31T01:43:12;101466.72;;;21.93;47.12
18784;BME280;9520;50.954;6.968;2022-10-31T01:43:47;101466.72;;;21.93;47.70
18784;BME280;9520;50.954;6.968;2022-10-31T01:45:09;101464.06;;;21.92;47.41
18784;BME280;9520;50.954;6.968;2022-10-31T01:45:31;101459.63;;;21.91;47.87
18784;BME280;9520;50.954;6.968;2022-10-31T01:45:53;101471.34;;;21.90;47.68
18784;BME280;9520;50.954;6.968;2022-10-31T01:46:18;101465.16;;;21.88;47.89
18784;BME280;9520;50.954;6.968;2022-10-31T01:46:44;101458.19;;;21.84;47.75
18784;BME280;9520;50.954;6.968;2022-10-31T01:47:13;101454.59;;;21.85;47.83
18784;BME280;9520;50.954;6.968;2022-10-31T01:47:41;101459.16;;;21.83;47.81
18784;BME280;9520;50.954;6.968;2022-10-31T01:48:04;101464.34;;;21.86;47.68
18784;BME280;9520;50.954;6.968;2022-10-31T01:48:27;101462.47;;;21.88;47.87
18784;BME280;9520;50.954;6.968;2022-10-31T01:48:50;101465.00;;;21.91;47.55
18784;BME280;9520;50.954;6.968;2022-10-31T01:49:16;101455.47;;;21.85;47.60
18784;BME280;9520;50.954;6.968;2022-10-31T01:49:41;101468.78;;;21.87;47.58
18784;BME280;9520;50.954;6.968;2022-10-31T01:50:11;101466.91;;;21.89;47.58
18784;BME280;9520;50.954;6.968;2022-10-31T01:50:36;101465.16;;;21.88;47.46
18784;BME280;9520;50.954;6.968;2022-10-31T01:50:59;101460.72;;;21.87;47.43
18784;BME280;9520;50.954;6.968;2022-10-31T01:51:24;101461.66;;;21.86;47.43
18784;BME280;9520;50.954;6.968;2022-10-31T01:51:51;101465.31;;;21.85;47.64
18784;BME280;9520;50.954;6.968;2022-10-31T01:52:21;101457.50;;;21.80;47.53
18784;BME280;9520;50.954;6.968;2022-10-31T01:52:47;101467.13;;;21.84;47.96
18784;BME280;9520;50.954;6.968;2022-10-31T01:53:11;101465.31;;;21.85;47.80
18784;BME280;9520;50.954;6.968;2022-10-31T01:53:35;101463.50;;;21.85;47.57
18784;BME280;9520;50.954;6.968;2022-10-31T01:54:00;101463.50;;;21.85;47.69
18784;BME280;9520;50.954;6.968;2022-10-31T01:54:25;101453.94;;;21.80;47.73
18784;BME280;9520;50.954;6.968;2022-10-31T01:54:51;101461.84;;;21.83;47.65
18784;BME280;9520;50.954;6.968;2022-10-31T01:55:18;101458.19;;;21.84;47.83
18784;BME280;9520;50.954;6.968;2022-10-31T01:55:46;101447.41;;;21.85;47.72
18784;BME280;9520;50.954;6.968;2022-10-31T01:56:10;101459.78;;;21.88;47.71
18784;BME280;9520;50.954;6.968;2022-10-31T01:56:34;101446.44;;;21.86;47.64
18784;BME280;9520;50.954;6.968;2022-10-31T01:57:00;101451.91;;;21.85;47.97
18784;BME280;9520;50.954;6.968;2022-10-31T01:57:25;101449.09;;;21.86;47.95
18784;BME280;9520;50.954;6.968;2022-10-31T01:57:49;101452.78;;;21.85;47.97
18784;BME280;9520;50.954;6.968;2022-10-31T01:58:16;101443.72;;;21.86;48.04
18784;BME280;9520;50.954;6.968;2022-10-31T01:58:40;101450.91;;;21.86;48.02
18784;BME280;9520;50.954;6.968;2022-10-31T01:59:05;101457.28;;;21.85;48.05
18784;BME280;9520;50.954;6.968;2022-10-31T01:59:30;101454.59;;;21.85;48.29
18784;BME280;9520;50.954;6.968;2022-10-31T01:59:57;101443.97;;;21.82;47.90
18784;BME280;9520;50.954;6.968;2022-10-31T02:00:22;101446.59;;;21.83;48.37
18784;BME280;9520;50.954;6.968;2022-10-31T02:00:46;101447.41;;;21.85;48.42
18784;BME280;9520;50.954;6.968;2022-10-31T02:01:10;101442.16;;;21.82;48.09
18784;BME280;9520;50.954;6.968;2022-10-31T02:01:33;101455.53;;;21.84;48.09
18784;BME280;9520;50.954;6.968;2022-10-31T02:01:56;101453.78;;;21.83;48.09
18784;BME280;9520;50.954;6.968;2022-10-31T02:02:18;101457.41;;;21.82;48.26
18784;BME280;9520;50.954;6.968;2022-10-31T02:02:41;101455.81;;;21.78;48.40
18784;BME280;9520;50.954;6.968;2022-10-31T02:03:04;101453.94;;;21.80;48.05
18784;BME280;9520;50.954;6.968;2022-10-31T02:03:27;101446.66;;;21.82;48.29
18784;BME280;9520;50.954;6.968;2022-10-31T02:03:51;101455.75;;;21.79;48.12
18784;BME280;9520;50.954;6.968;2022-10-31T02:04:16;101458.44;;;21.79;48.37